sensor_id;sensor_type;location;lat;lon;timestamp;P1;durP1;ratioP1;P2;durP2;ratioP2
72065;SDS011;59939;52.516;13.420;2023-05-09T00:00:41;12.43;;;5.50;;
72065;SDS011;59939;52.516;13.420;2023-05-09T00:03:45;18.80;;;8.63;;
72065;SDS011;59939;52.516;13.420;2023-05-09T00:06:58;16.13;;;6.33;;
72065;SDS011;59939;52.516;13.420;2023-05-09T00:10:05;14.77;;;7.13;;
72065;SDS011;59939;52.516;13.420;2023-05-09T00:13:09;14.97;;;6.80;;
72065;SDS011;59939;52.516;13.420;2023-05-09T00:16:14;13.83;;;6.27;;
72065;SDS011;59939;52.516;13.420;2023-05-09T00:19:20;15.23;;;7.40;;
72065;SDS011;59939;52.516;13.420;2023-05-09T00:22:25;16.37;;;7.87;;
72065;SDS011;59939;52.516;13.420;2023-05-09T00:25:29;16.10;;;7.23;;
72065;SDS011;59939;52.516;13.420;2023-05-09T00:28:33;19.23;;;8.83;;
72065;SDS011;59939;52.516;13.420;2023-05-09T00:31:36;23.27;;;9.07;;
72065;SDS011;59939;52.516;13.420;2023-05-09T00:34:41;16.17;;;6.33;;
72065;SDS011;59939;52.516;13.420;2023-05-09T00:37:44;13.37;;;5.20;;
72065;SDS011;59939;52.516;13.420;2023-05-09T00:40:48;12.50;;;5.13;;
72065;SDS011;59939;52.516;13.420;2023-05-09T00:43:51;13.20;;;4.87;;
72065;SDS011;59939;52.516;13.420;2023-05-09T00:46:56;12.33;;;5.37;;
72065;SDS011;59939;52.516;13.420;2023-05-09T00:50:00;12.57;;;5.70;;
72065;SDS011;59939;52.516;13.420;2023-05-09T00:53:04;11.10;;;5.03;;
72065;SDS011;59939;52.516;13.420;2023-05-09T00:56:09;14.40;;;4.87;;
72065;SDS011;59939;52.516;13.420;2023-05-09T00:59:13;12.90;;;4.47;;
72065;SDS011;59939;52.516;13.420;2023-05-09T01:02:18;10.50;;;4.30;;
72065;SDS011;59939;52.516;13.420;2023-05-09T01:05:24;11.87;;;4.40;;
72065;SDS011;59939;52.516;13.420;2023-05-09T01:12:12;13.20;;;4.93;;
72065;SDS011;59939;52.516;13.420;2023-05-09T01:18:39;13.57;;;4.73;;
72065;SDS011;59939;52.516;13.420;2023-05-09T01:21:46;9.67;;;3.43;;
72065;SDS011;59939;52.516;13.420;2023-05-09T01:24:57;12.57;;;4.40;;
72065;SDS011;59939;52.516;13.420;2023-05-09T01:28:17;8.40;;;3.47;;
72065;SDS011;59939;52.516;13.420;2023-05-09T01:31:24;8.63;;;3.70;;
72065;SDS011;59939;52.516;13.420;2023-05-09T01:34:28;9.97;;;4.07;;
72065;SDS011;59939;52.516;13.420;2023-05-09T01:37:33;10.33;;;4.00;;
72065;SDS011;59939;52.516;13.420;2023-05-09T01:40:38;13.50;;;3.93;;
72065;SDS011;59939;52.516;13.420;2023-05-09T01:43:44;9.63;;;3.47;;
72065;SDS011;59939;52.516;13.420;2023-05-09T01:46:51;8.47;;;3.50;;
72065;SDS011;59939;52.516;13.420;2023-05-09T01:49:58;19.63;;;8.60;;
72065;SDS011;59939;52.516;13.420;2023-05-09T01:53:05;11.23;;;3.80;;
72065;SDS011;59939;52.516;13.420;2023-05-09T01:56:16;9.50;;;3.47;;
72065;SDS011;59939;52.516;13.420;2023-05-09T01:59:21;8.57;;;3.40;;
72065;SDS011;59939;52.516;13.420;2023-05-09T02:02:26;10.03;;;4.30;;
72065;SDS011;59939;52.516;13.420;2023-05-09T02:05:30;10.07;;;3.83;;
72065;SDS011;59939;52.516;13.420;2023-05-09T02:08:35;12.47;;;4.10;;
72065;SDS011;59939;52.516;13.420;2023-05-09T02:11:39;8.97;;;3.60;;
72065;SDS011;59939;52.516;13.420;2023-05-09T02:14:43;8.53;;;3.07;;
72065;SDS011;59939;52.516;13.420;2023-05-09T02:17:47;9.67;;;3.70;;
72065;SDS011;59939;52.516;13.420;2023-05-09T02:20:51;8.10;;;2.80;;
72065;SDS011;59939;52.516;13.420;2023-05-09T02:23:55;10.57;;;4.00;;
72065;SDS011;59939;52.516;13.420;2023-05-09T02:26:59;8.33;;;3.67;;
72065;SDS011;59939;52.516;13.420;2023-05-09T02:30:06;9.17;;;3.13;;
72065;SDS011;59939;52.516;13.420;2023-05-09T02:33:11;7.37;;;3.00;;
72065;SDS011;59939;52.516;13.420;2023-05-09T02:36:15;8.30;;;2.80;;
72065;SDS011;59939;52.516;13.420;2023-05-09T02:39:19;10.30;;;3.67;;
72065;SDS011;59939;52.516;13.420;2023-05-09T02:42:25;8.57;;;3.80;;
72065;SDS011;59939;52.516;13.420;2023-05-09T02:45:28;8.77;;;3.77;;
72065;SDS011;59939;52.516;13.420;2023-05-09T02:48:32;6.83;;;2.93;;
72065;SDS011;59939;52.516;13.420;2023-05-09T02:51:36;9.03;;;3.80;;
72065;SDS011;59939;52.516;13.420;2023-05-09T02:54:40;8.77;;;3.20;;
72065;SDS011;59939;52.516;13.420;2023-05-09T02:57:44;10.73;;;3.33;;
72065;SDS011;59939;52.516;13.420;2023-05-09T03:00:47;10.00;;;3.60;;
72065;SDS011;59939;52.516;13.420;2023-05-09T03:03:52;10.07;;;3.43;;
72065;SDS011;59939;52.516;13.420;2023-05-09T03:06:57;6.43;;;3.27;;
72065;SDS011;59939;52.516;13.420;2023-05-09T03:10:06;10.67;;;4.43;;
72065;SDS011;59939;52.516;13.420;2023-05-09T03:13:10;10.20;;;3.60;;
72065;SDS011;59939;52.516;13.420;2023-05-09T03:16:16;11.80;;;3.60;;
72065;SDS011;59939;52.516;13.420;2023-05-09T03:19:21;9.57;;;3.60;;
72065;SDS011;59939;52.516;13.420;2023-05-09T03:22:24;12.30;;;4.33;;
72065;SDS011;59939;52.516;13.420;2023-05-09T03:25:36;10.13;;;3.73;;
72065;SDS011;59939;52.516;13.420;2023-05-09T03:28:39;12.07;;;3.30;;
72065;SDS011;59939;52.516;13.420;2023-05-09T03:31:43;11.33;;;4.33;;
72065;SDS011;59939;52.516;13.420;2023-05-09T03:34:48;8.90;;;3.67;;
72065;SDS011;59939;52.516;13.420;2023-05-09T03:37:52;11.60;;;3.93;;
72065;SDS011;59939;52.516;13.420;2023-05-09T03:40:56;10.80;;;3.53;;
72065;SDS011;59939;52.516;13.420;2023-05-09T03:44:01;9.97;;;4.13;;
72065;SDS011;59939;52.516;13.420;2023-05-09T03:47:05;10.13;;;3.87;;
72065;SDS011;59939;52.516;13.420;2023-05-09T03:50:13;11.23;;;4.20;;
72065;SDS011;59939;52.516;13.420;2023-05-09T03:53:18;10.17;;;3.90;;
72065;SDS011;59939;52.516;13.420;2023-05-09T03:56:24;10.47;;;4.53;;
72065;SDS011;59939;52.516;13.420;2023-05-09T03:59:33;8.80;;;3.60;;
72065;SDS011;59939;52.516;13.420;2023-05-09T04:02:37;10.13;;;3.77;;
72065;SDS011;59939;52.516;13.420;2023-05-09T04:05:43;9.27;;;3.90;;
72065;SDS011;59939;52.516;13.420;2023-05-09T04:08:55;8.57;;;3.50;;
72065;SDS011;59939;52.516;13.420;2023-05-09T04:11:59;10.87;;;3.80;;
72065;SDS011;59939;52.516;13.420;2023-05-09T04:15:18;14.07;;;4.03;;
72065;SDS011;59939;52.516;13.420;2023-05-09T04:18:24;9.97;;;4.37;;
72065;SDS011;59939;52.516;13.420;2023-05-09T04:21:28;13.20;;;3.97;;
72065;SDS011;59939;52.516;13.420;2023-05-09T04:24:35;11.50;;;3.80;;
72065;SDS011;59939;52.516;13.420;2023-05-09T04:27:41;14.43;;;5.00;;
72065;SDS011;59939;52.516;13.420;2023-05-09T04:30:45;8.73;;;3.53;;
72065;SDS011;59939;52.516;13.420;2023-05-09T04:33:50;9.40;;;3.93;;
72065;SDS011;59939;52.516;13.420;2023-05-09T04:36:54;11.43;;;4.67;;
72065;SDS011;59939;52.516;13.420;2023-05-09T04:39:58;12.03;;;5.63;;
72065;SDS011;59939;52.516;13.420;2023-05-09T04:43:10;12.70;;;4.70;;
72065;SDS011;59939;52.516;13.420;2023-05-09T04:46:22;12.13;;;4.70;;
72065;SDS011;59939;52.516;13.420;2023-05-09T04:49:27;11.47;;;3.90;;
72065;SDS011;59939;52.516;13.420;2023-05-09T04:52:30;12.87;;;4.83;;
72065;SDS011;59939;52.516;13.420;2023-05-09T04:55:34;10.57;;;4.23;;
72065;SDS011;59939;52.516;13.420;2023-05-09T04:58:38;13.73;;;5.60;;
72065;SDS011;59939;52.516;13.420;2023-05-09T05:01:46;11.50;;;4.90;;
72065;SDS011;59939;52.516;13.420;2023-05-09T05:04:50;10.53;;;4.03;;
72065;SDS011;59939;52.516;13.420;2023-05-09T05:07:55;11.70;;;3.80;;
72065;SDS011;59939;52.516;13.420;2023-05-09T05:11:05;13.97;;;4.23;;
72065;SDS011;59939;52.516;13.420;2023-05-09T05:14:10;12.70;;;4.27;;
72065;SDS011;59939;52.516;13.420;2023-05-09T05:17:15;11.40;;;3.90;;
72065;SDS011;59939;52.516;13.420;2023-05-09T05:20:22;12.40;;;4.53;;
72065;SDS011;59939;52.516;13.420;2023-05-09T05:23:28;12.17;;;4.57;;
72065;SDS011;59939;52.516;13.420;2023-05-09T05:26:47;11.93;;;4.40;;
72065;SDS011;59939;52.516;13.420;2023-05-09T05:29:53;11.33;;;5.03;;
72065;SDS011;59939;52.516;13.420;2023-05-09T05:32:59;9.43;;;3.73;;
72065;SDS011;59939;52.516;13.420;2023-05-09T05:36:06;11.97;;;4.70;;
72065;SDS011;59939;52.516;13.420;2023-05-09T05:39:10;10.00;;;4.20;;
72065;SDS011;59939;52.516;13.420;2023-05-09T05:42:14;12.33;;;4.57;;
72065;SDS011;59939;52.516;13.420;2023-05-09T05:45:32;14.60;;;5.60;;
72065;SDS011;59939;52.516;13.420;2023-05-09T05:48:43;14.43;;;4.87;;
72065;SDS011;59939;52.516;13.420;2023-05-09T05:51:49;13.30;;;4.30;;
72065;SDS011;59939;52.516;13.420;2023-05-09T05:54:53;13.00;;;5.00;;
72065;SDS011;59939;52.516;13.420;2023-05-09T05:57:59;9.20;;;3.67;;
72065;SDS011;59939;52.516;13.420;2023-05-09T06:01:03;12.53;;;4.87;;
72065;SDS011;59939;52.516;13.420;2023-05-09T06:04:07;10.00;;;4.63;;
72065;SDS011;59939;52.516;13.420;2023-05-09T06:07:11;14.47;;;5.10;;
72065;SDS011;59939;52.516;13.420;2023-05-09T06:10:16;12.30;;;4.23;;
72065;SDS011;59939;52.516;13.420;2023-05-09T06:13:25;13.95;;;4.30;;
72065;SDS011;59939;52.516;13.420;2023-05-09T06:16:35;12.23;;;4.30;;
72065;SDS011;59939;52.516;13.420;2023-05-09T06:19:52;10.82;;;4.63;;
72065;SDS011;59939;52.516;13.420;2023-05-09T06:22:58;12.57;;;5.23;;
72065;SDS011;59939;52.516;13.420;2023-05-09T06:26:03;10.57;;;4.33;;
72065;SDS011;59939;52.516;13.420;2023-05-09T06:29:06;11.10;;;3.85;;
72065;SDS011;59939;52.516;13.420;2023-05-09T06:32:11;10.63;;;4.20;;
72065;SDS011;59939;52.516;13.420;2023-05-09T06:35:14;10.90;;;3.78;;
72065;SDS011;59939;52.516;13.420;2023-05-09T06:38:20;10.17;;;4.03;;
72065;SDS011;59939;52.516;13.420;2023-05-09T06:41:25;9.82;;;3.80;;
72065;SDS011;59939;52.516;13.420;2023-05-09T06:44:42;6.97;;;3.30;;
72065;SDS011;59939;52.516;13.420;2023-05-09T06:47:46;11.02;;;4.18;;
72065;SDS011;59939;52.516;13.420;2023-05-09T06:50:52;12.85;;;4.28;;
72065;SDS011;59939;52.516;13.420;2023-05-09T06:53:56;13.73;;;4.93;;
72065;SDS011;59939;52.516;13.420;2023-05-09T06:56:59;12.60;;;4.40;;
72065;SDS011;59939;52.516;13.420;2023-05-09T07:00:03;11.93;;;4.40;;
72065;SDS011;59939;52.516;13.420;2023-05-09T07:03:08;13.33;;;5.00;;
72065;SDS011;59939;52.516;13.420;2023-05-09T07:06:21;12.85;;;4.50;;
72065;SDS011;59939;52.516;13.420;2023-05-09T07:09:28;11.77;;;3.73;;
72065;SDS011;59939;52.516;13.420;2023-05-09T07:12:35;10.93;;;4.63;;
72065;SDS011;59939;52.516;13.420;2023-05-09T07:15:46;12.77;;;4.38;;
72065;SDS011;59939;52.516;13.420;2023-05-09T07:18:51;12.90;;;5.43;;
72065;SDS011;59939;52.516;13.420;2023-05-09T07:22:03;12.73;;;4.30;;
72065;SDS011;59939;52.516;13.420;2023-05-09T07:25:16;10.68;;;4.45;;
72065;SDS011;59939;52.516;13.420;2023-05-09T07:28:24;12.07;;;4.43;;
72065;SDS011;59939;52.516;13.420;2023-05-09T07:31:29;11.43;;;3.40;;
72065;SDS011;59939;52.516;13.420;2023-05-09T07:34:33;11.20;;;3.90;;
72065;SDS011;59939;52.516;13.420;2023-05-09T07:37:41;10.02;;;3.90;;
72065;SDS011;59939;52.516;13.420;2023-05-09T07:40:48;10.10;;;3.42;;
72065;SDS011;59939;52.516;13.420;2023-05-09T07:43:51;9.73;;;3.45;;
72065;SDS011;59939;52.516;13.420;2023-05-09T07:47:02;9.05;;;3.40;;
72065;SDS011;59939;52.516;13.420;2023-05-09T07:53:39;8.07;;;3.20;;
72065;SDS011;59939;52.516;13.420;2023-05-09T07:56:42;10.57;;;3.22;;
72065;SDS011;59939;52.516;13.420;2023-05-09T07:59:48;13.18;;;4.15;;
72065;SDS011;59939;52.516;13.420;2023-05-09T08:02:52;7.50;;;3.25;;
72065;SDS011;59939;52.516;13.420;2023-05-09T08:06:03;7.85;;;3.35;;
72065;SDS011;59939;52.516;13.420;2023-05-09T08:09:08;12.57;;;3.75;;
72065;SDS011;59939;52.516;13.420;2023-05-09T08:12:12;9.00;;;4.00;;
72065;SDS011;59939;52.516;13.420;2023-05-09T08:15:22;8.02;;;2.95;;
72065;SDS011;59939;52.516;13.420;2023-05-09T08:18:28;7.15;;;3.03;;
72065;SDS011;59939;52.516;13.420;2023-05-09T08:21:32;8.25;;;3.10;;
72065;SDS011;59939;52.516;13.420;2023-05-09T08:24:36;7.30;;;3.30;;
72065;SDS011;59939;52.516;13.420;2023-05-09T08:27:47;7.38;;;3.78;;
72065;SDS011;59939;52.516;13.420;2023-05-09T08:30:51;9.82;;;4.18;;
72065;SDS011;59939;52.516;13.420;2023-05-09T08:33:55;18.88;;;5.68;;
72065;SDS011;59939;52.516;13.420;2023-05-09T08:37:01;11.32;;;4.65;;
72065;SDS011;59939;52.516;13.420;2023-05-09T08:40:06;8.70;;;3.38;;
72065;SDS011;59939;52.516;13.420;2023-05-09T08:43:12;9.65;;;3.38;;
72065;SDS011;59939;52.516;13.420;2023-05-09T08:46:21;11.63;;;3.80;;
72065;SDS011;59939;52.516;13.420;2023-05-09T08:49:27;11.65;;;3.40;;
72065;SDS011;59939;52.516;13.420;2023-05-09T08:52:31;8.65;;;3.10;;
72065;SDS011;59939;52.516;13.420;2023-05-09T08:55:49;9.65;;;2.85;;
72065;SDS011;59939;52.516;13.420;2023-05-09T08:58:53;10.63;;;3.28;;
72065;SDS011;59939;52.516;13.420;2023-05-09T09:02:00;10.95;;;3.53;;
72065;SDS011;59939;52.516;13.420;2023-05-09T09:05:04;7.03;;;3.40;;
72065;SDS011;59939;52.516;13.420;2023-05-09T09:08:16;11.48;;;3.40;;
72065;SDS011;59939;52.516;13.420;2023-05-09T09:11:20;8.73;;;3.05;;
72065;SDS011;59939;52.516;13.420;2023-05-09T09:14:25;14.90;;;3.60;;
72065;SDS011;59939;52.516;13.420;2023-05-09T09:17:33;13.10;;;3.30;;
72065;SDS011;59939;52.516;13.420;2023-05-09T09:20:42;8.50;;;3.08;;
72065;SDS011;59939;52.516;13.420;2023-05-09T09:24:03;8.98;;;3.25;;
72065;SDS011;59939;52.516;13.420;2023-05-09T09:27:08;12.48;;;3.70;;
72065;SDS011;59939;52.516;13.420;2023-05-09T09:30:12;5.30;;;2.40;;
72065;SDS011;59939;52.516;13.420;2023-05-09T09:33:23;13.32;;;3.38;;
72065;SDS011;59939;52.516;13.420;2023-05-09T09:36:30;8.25;;;3.38;;
72065;SDS011;59939;52.516;13.420;2023-05-09T09:39:42;10.40;;;3.10;;
72065;SDS011;59939;52.516;13.420;2023-05-09T09:42:55;11.60;;;3.25;;
72065;SDS011;59939;52.516;13.420;2023-05-09T09:46:01;8.63;;;2.80;;
72065;SDS011;59939;52.516;13.420;2023-05-09T09:49:13;10.40;;;2.70;;
72065;SDS011;59939;52.516;13.420;2023-05-09T09:52:24;5.65;;;2.50;;
72065;SDS011;59939;52.516;13.420;2023-05-09T09:55:35;6.95;;;2.50;;
72065;SDS011;59939;52.516;13.420;2023-05-09T09:58:39;7.30;;;2.60;;
72065;SDS011;59939;52.516;13.420;2023-05-09T10:02:02;8.15;;;2.70;;
72065;SDS011;59939;52.516;13.420;2023-05-09T10:05:09;9.05;;;3.08;;
72065;SDS011;59939;52.516;13.420;2023-05-09T10:08:13;9.40;;;3.00;;
72065;SDS011;59939;52.516;13.420;2023-05-09T10:11:19;8.73;;;3.00;;
72065;SDS011;59939;52.516;13.420;2023-05-09T10:14:24;9.35;;;3.13;;
72065;SDS011;59939;52.516;13.420;2023-05-09T10:17:31;11.43;;;3.10;;
72065;SDS011;59939;52.516;13.420;2023-05-09T10:20:36;8.25;;;3.13;;
72065;SDS011;59939;52.516;13.420;2023-05-09T10:23:44;8.57;;;3.03;;
72065;SDS011;59939;52.516;13.420;2023-05-09T10:27:00;7.90;;;3.03;;
72065;SDS011;59939;52.516;13.420;2023-05-09T10:30:14;10.27;;;2.78;;
72065;SDS011;59939;52.516;13.420;2023-05-09T10:33:19;8.93;;;3.15;;
72065;SDS011;59939;52.516;13.420;2023-05-09T10:36:25;10.70;;;3.00;;
72065;SDS011;59939;52.516;13.420;2023-05-09T10:39:31;8.43;;;2.95;;
72065;SDS011;59939;52.516;13.420;2023-05-09T10:42:35;7.40;;;3.05;;
72065;SDS011;59939;52.516;13.420;2023-05-09T10:45:39;8.68;;;3.05;;
72065;SDS011;59939;52.516;13.420;2023-05-09T10:48:43;11.40;;;2.83;;
72065;SDS011;59939;52.516;13.420;2023-05-09T10:51:51;5.53;;;2.40;;
72065;SDS011;59939;52.516;13.420;2023-05-09T10:54:58;9.98;;;3.47;;
72065;SDS011;59939;52.516;13.420;2023-05-09T11:01:39;9.57;;;3.55;;
72065;SDS011;59939;52.516;13.420;2023-05-09T11:04:43;14.63;;;3.33;;
72065;SDS011;59939;52.516;13.420;2023-05-09T11:07:47;7.80;;;2.72;;
72065;SDS011;59939;52.516;13.420;2023-05-09T11:11:11;8.45;;;3.28;;
72065;SDS011;59939;52.516;13.420;2023-05-09T11:17:40;10.02;;;2.83;;
72065;SDS011;59939;52.516;13.420;2023-05-09T11:20:45;11.85;;;3.00;;
72065;SDS011;59939;52.516;13.420;2023-05-09T11:23:51;5.45;;;2.47;;
72065;SDS011;59939;52.516;13.420;2023-05-09T11:26:56;7.35;;;2.72;;
72065;SDS011;59939;52.516;13.420;2023-05-09T11:30:03;6.28;;;2.55;;
72065;SDS011;59939;52.516;13.420;2023-05-09T11:33:23;11.27;;;2.83;;
72065;SDS011;59939;52.516;13.420;2023-05-09T11:36:28;6.53;;;2.45;;
72065;SDS011;59939;52.516;13.420;2023-05-09T11:39:32;7.75;;;3.28;;
72065;SDS011;59939;52.516;13.420;2023-05-09T11:42:43;9.23;;;3.13;;
72065;SDS011;59939;52.516;13.420;2023-05-09T11:45:48;10.63;;;3.60;;
72065;SDS011;59939;52.516;13.420;2023-05-09T11:48:52;9.85;;;3.90;;
72065;SDS011;59939;52.516;13.420;2023-05-09T11:51:58;11.10;;;4.43;;
72065;SDS011;59939;52.516;13.420;2023-05-09T11:55:04;9.02;;;4.15;;
72065;SDS011;59939;52.516;13.420;2023-05-09T11:58:10;9.80;;;3.40;;
72065;SDS011;59939;52.516;13.420;2023-05-09T12:01:17;14.82;;;5.28;;
72065;SDS011;59939;52.516;13.420;2023-05-09T12:04:22;9.88;;;4.20;;
72065;SDS011;59939;52.516;13.420;2023-05-09T12:07:29;9.50;;;3.55;;
72065;SDS011;59939;52.516;13.420;2023-05-09T12:10:35;10.98;;;3.88;;
72065;SDS011;59939;52.516;13.420;2023-05-09T12:13:49;8.18;;;3.58;;
72065;SDS011;59939;52.516;13.420;2023-05-09T12:16:56;9.60;;;3.40;;
72065;SDS011;59939;52.516;13.420;2023-05-09T12:20:00;9.35;;;3.53;;
72065;SDS011;59939;52.516;13.420;2023-05-09T12:23:07;8.27;;;3.30;;
72065;SDS011;59939;52.516;13.420;2023-05-09T12:26:15;8.27;;;3.03;;
72065;SDS011;59939;52.516;13.420;2023-05-09T12:29:20;8.45;;;3.08;;
72065;SDS011;59939;52.516;13.420;2023-05-09T12:32:38;15.25;;;4.28;;
72065;SDS011;59939;52.516;13.420;2023-05-09T12:35:46;7.50;;;2.90;;
72065;SDS011;59939;52.516;13.420;2023-05-09T12:38:53;10.70;;;3.38;;
72065;SDS011;59939;52.516;13.420;2023-05-09T12:41:58;8.50;;;2.97;;
72065;SDS011;59939;52.516;13.420;2023-05-09T12:45:06;7.57;;;2.83;;
72065;SDS011;59939;52.516;13.420;2023-05-09T12:48:11;12.30;;;3.55;;
72065;SDS011;59939;52.516;13.420;2023-05-09T12:51:19;9.77;;;2.78;;
72065;SDS011;59939;52.516;13.420;2023-05-09T12:54:24;9.88;;;3.30;;
72065;SDS011;59939;52.516;13.420;2023-05-09T12:57:28;7.65;;;2.80;;
72065;SDS011;59939;52.516;13.420;2023-05-09T13:00:41;7.70;;;2.63;;
72065;SDS011;59939;52.516;13.420;2023-05-09T13:04:19;12.80;;;3.15;;
72065;SDS011;59939;52.516;13.420;2023-05-09T13:07:16;7.78;;;2.92;;
72065;SDS011;59939;52.516;13.420;2023-05-09T13:10:22;5.93;;;2.60;;
72065;SDS011;59939;52.516;13.420;2023-05-09T13:13:28;10.32;;;3.63;;
72065;SDS011;59939;52.516;13.420;2023-05-09T13:16:35;8.95;;;3.10;;
72065;SDS011;59939;52.516;13.420;2023-05-09T13:19:39;9.75;;;4.00;;
72065;SDS011;59939;52.516;13.420;2023-05-09T13:22:45;10.55;;;3.28;;
72065;SDS011;59939;52.516;13.420;2023-05-09T13:26:03;9.15;;;2.88;;
72065;SDS011;59939;52.516;13.420;2023-05-09T13:29:07;6.00;;;2.80;;
72065;SDS011;59939;52.516;13.420;2023-05-09T13:32:13;10.27;;;3.67;;
72065;SDS011;59939;52.516;13.420;2023-05-09T13:35:19;8.32;;;2.80;;
72065;SDS011;59939;52.516;13.420;2023-05-09T13:38:23;9.27;;;3.10;;
72065;SDS011;59939;52.516;13.420;2023-05-09T13:41:28;8.80;;;3.05;;
72065;SDS011;59939;52.516;13.420;2023-05-09T13:44:34;10.52;;;3.67;;
72065;SDS011;59939;52.516;13.420;2023-05-09T13:47:52;9.73;;;3.50;;
72065;SDS011;59939;52.516;13.420;2023-05-09T13:50:56;10.48;;;3.33;;
72065;SDS011;59939;52.516;13.420;2023-05-09T13:54:02;10.20;;;2.75;;
72065;SDS011;59939;52.516;13.420;2023-05-09T13:57:10;10.55;;;3.20;;
72065;SDS011;59939;52.516;13.420;2023-05-09T14:00:15;11.13;;;2.97;;
72065;SDS011;59939;52.516;13.420;2023-05-09T14:03:26;8.73;;;3.75;;
72065;SDS011;59939;52.516;13.420;2023-05-09T14:06:30;7.50;;;3.58;;
72065;SDS011;59939;52.516;13.420;2023-05-09T14:09:34;16.92;;;4.65;;
72065;SDS011;59939;52.516;13.420;2023-05-09T14:12:42;10.80;;;3.38;;
72065;SDS011;59939;52.516;13.420;2023-05-09T14:15:52;10.63;;;3.63;;
72065;SDS011;59939;52.516;13.420;2023-05-09T14:18:56;11.30;;;3.65;;
72065;SDS011;59939;52.516;13.420;2023-05-09T14:22:00;8.82;;;2.72;;
72065;SDS011;59939;52.516;13.420;2023-05-09T14:25:04;9.77;;;2.88;;
72065;SDS011;59939;52.516;13.420;2023-05-09T14:28:08;8.70;;;2.72;;
72065;SDS011;59939;52.516;13.420;2023-05-09T14:31:12;9.85;;;2.80;;
72065;SDS011;59939;52.516;13.420;2023-05-09T14:34:18;10.68;;;2.80;;
72065;SDS011;59939;52.516;13.420;2023-05-09T14:37:22;10.13;;;2.88;;
72065;SDS011;59939;52.516;13.420;2023-05-09T14:40:33;9.07;;;2.80;;
72065;SDS011;59939;52.516;13.420;2023-05-09T14:43:37;8.13;;;2.80;;
72065;SDS011;59939;52.516;13.420;2023-05-09T14:46:44;8.38;;;3.20;;
72065;SDS011;59939;52.516;13.420;2023-05-09T14:49:49;7.25;;;2.58;;
72065;SDS011;59939;52.516;13.420;2023-05-09T14:52:56;10.88;;;3.33;;
72065;SDS011;59939;52.516;13.420;2023-05-09T14:56:01;9.82;;;3.10;;
72065;SDS011;59939;52.516;13.420;2023-05-09T14:59:06;10.82;;;3.20;;
72065;SDS011;59939;52.516;13.420;2023-05-09T15:02:13;7.10;;;2.60;;
72065;SDS011;59939;52.516;13.420;2023-05-09T15:05:17;10.60;;;2.92;;
72065;SDS011;59939;52.516;13.420;2023-05-09T15:08:23;6.15;;;2.80;;
72065;SDS011;59939;52.516;13.420;2023-05-09T15:11:29;10.82;;;2.75;;
72065;SDS011;59939;52.516;13.420;2023-05-09T15:14:39;7.30;;;2.58;;
72065;SDS011;59939;52.516;13.420;2023-05-09T15:17:43;9.10;;;3.08;;
72065;SDS011;59939;52.516;13.420;2023-05-09T15:24:16;7.40;;;2.53;;
72065;SDS011;59939;52.516;13.420;2023-05-09T15:27:20;9.05;;;2.58;;
72065;SDS011;59939;52.516;13.420;2023-05-09T15:30:31;7.65;;;2.80;;
72065;SDS011;59939;52.516;13.420;2023-05-09T15:33:35;7.13;;;2.58;;
72065;SDS011;59939;52.516;13.420;2023-05-09T15:36:39;10.38;;;2.72;;
72065;SDS011;59939;52.516;13.420;2023-05-09T15:39:43;9.23;;;2.95;;
72065;SDS011;59939;52.516;13.420;2023-05-09T15:42:48;7.07;;;2.40;;
72065;SDS011;59939;52.516;13.420;2023-05-09T15:45:52;8.80;;;3.08;;
72065;SDS011;59939;52.516;13.420;2023-05-09T15:48:57;3.80;;;2.35;;
72065;SDS011;59939;52.516;13.420;2023-05-09T15:52:07;8.63;;;2.65;;
72065;SDS011;59939;52.516;13.420;2023-05-09T15:55:12;11.98;;;2.95;;
72065;SDS011;59939;52.516;13.420;2023-05-09T15:58:16;9.20;;;2.72;;
72065;SDS011;59939;52.516;13.420;2023-05-09T16:01:19;6.20;;;2.25;;
72065;SDS011;59939;52.516;13.420;2023-05-09T16:04:23;5.60;;;2.30;;
72065;SDS011;59939;52.516;13.420;2023-05-09T16:07:27;11.40;;;2.75;;
72065;SDS011;59939;52.516;13.420;2023-05-09T16:10:38;8.65;;;2.70;;
72065;SDS011;59939;52.516;13.420;2023-05-09T16:13:45;6.78;;;2.83;;
72065;SDS011;59939;52.516;13.420;2023-05-09T16:16:53;11.40;;;2.88;;
72065;SDS011;59939;52.516;13.420;2023-05-09T16:20:11;10.88;;;2.70;;
72065;SDS011;59939;52.516;13.420;2023-05-09T16:23:18;5.93;;;2.42;;
72065;SDS011;59939;52.516;13.420;2023-05-09T16:26:23;11.32;;;2.97;;
72065;SDS011;59939;52.516;13.420;2023-05-09T16:29:27;7.80;;;2.45;;
72065;SDS011;59939;52.516;13.420;2023-05-09T16:32:31;5.30;;;2.58;;
72065;SDS011;59939;52.516;13.420;2023-05-09T16:35:34;9.73;;;2.83;;
72065;SDS011;59939;52.516;13.420;2023-05-09T16:38:38;7.22;;;2.70;;
72065;SDS011;59939;52.516;13.420;2023-05-09T16:41:45;13.18;;;2.88;;
72065;SDS011;59939;52.516;13.420;2023-05-09T16:44:49;13.18;;;3.17;;
72065;SDS011;59939;52.516;13.420;2023-05-09T16:47:53;9.85;;;2.92;;
72065;SDS011;59939;52.516;13.420;2023-05-09T16:50:58;9.77;;;3.15;;
72065;SDS011;59939;52.516;13.420;2023-05-09T16:54:01;10.05;;;3.10;;
72065;SDS011;59939;52.516;13.420;2023-05-09T16:57:05;9.50;;;2.83;;
72065;SDS011;59939;52.516;13.420;2023-05-09T17:00:09;7.78;;;2.92;;
72065;SDS011;59939;52.516;13.420;2023-05-09T17:03:13;10.05;;;3.28;;
72065;SDS011;59939;52.516;13.420;2023-05-09T17:06:19;12.50;;;3.33;;
72065;SDS011;59939;52.516;13.420;2023-05-09T17:09:23;8.52;;;2.85;;
72065;SDS011;59939;52.516;13.420;2023-05-09T17:12:27;7.43;;;2.88;;
72065;SDS011;59939;52.516;13.420;2023-05-09T17:15:30;11.57;;;3.08;;
72065;SDS011;59939;52.516;13.420;2023-05-09T17:18:36;7.03;;;2.75;;
72065;SDS011;59939;52.516;13.420;2023-05-09T17:21:41;10.82;;;3.45;;
72065;SDS011;59939;52.516;13.420;2023-05-09T17:24:45;10.65;;;3.53;;
72065;SDS011;59939;52.516;13.420;2023-05-09T17:27:49;10.25;;;3.22;;
72065;SDS011;59939;52.516;13.420;2023-05-09T17:31:07;10.77;;;2.92;;
72065;SDS011;59939;52.516;13.420;2023-05-09T17:34:14;7.97;;;2.60;;
72065;SDS011;59939;52.516;13.420;2023-05-09T17:37:18;10.25;;;2.80;;
72065;SDS011;59939;52.516;13.420;2023-05-09T17:40:24;10.68;;;3.03;;
72065;SDS011;59939;52.516;13.420;2023-05-09T17:43:30;10.27;;;3.17;;
72065;SDS011;59939;52.516;13.420;2023-05-09T17:46:38;10.35;;;2.63;;
72065;SDS011;59939;52.516;13.420;2023-05-09T17:49:43;8.88;;;2.50;;
72065;SDS011;59939;52.516;13.420;2023-05-09T17:52:49;8.75;;;2.70;;
72065;SDS011;59939;52.516;13.420;2023-05-09T17:55:53;8.52;;;3.22;;
72065;SDS011;59939;52.516;13.420;2023-05-09T17:58:57;14.80;;;3.53;;
72065;SDS011;59939;52.516;13.420;2023-05-09T18:02:07;10.90;;;2.90;;
72065;SDS011;59939;52.516;13.420;2023-05-09T18:05:19;11.02;;;2.85;;
72065;SDS011;59939;52.516;13.420;2023-05-09T18:08:23;11.75;;;3.25;;
72065;SDS011;59939;52.516;13.420;2023-05-09T18:11:29;7.82;;;2.95;;
72065;SDS011;59939;52.516;13.420;2023-05-09T18:14:41;8.25;;;3.00;;
72065;SDS011;59939;52.516;13.420;2023-05-09T18:17:44;10.00;;;3.30;;
72065;SDS011;59939;52.516;13.420;2023-05-09T18:20:55;6.45;;;2.97;;
72065;SDS011;59939;52.516;13.420;2023-05-09T18:23:59;10.77;;;3.05;;
72065;SDS011;59939;52.516;13.420;2023-05-09T18:27:03;8.60;;;3.05;;
72065;SDS011;59939;52.516;13.420;2023-05-09T18:30:07;8.95;;;3.42;;
72065;SDS011;59939;52.516;13.420;2023-05-09T18:33:11;11.95;;;3.13;;
72065;SDS011;59939;52.516;13.420;2023-05-09T18:36:17;13.77;;;3.35;;
72065;SDS011;59939;52.516;13.420;2023-05-09T18:39:21;11.30;;;2.88;;